Time;durP1;ratioP1;P1;durP2;ratioP2;P2;SDS_P1;SDS_P2;PMS_P1;PMS_P2;Temp;Humidity;BMP_temperature;BMP_pressure;BME280_temperature;BME280_humidity;BME280_pressure;Samples;Min_cycle;Max_cycle;Signal;HPM_P1;HPM_P2
2022/04/01 00:00:16;;;;;;;11.55;5.45;;;;;;;20.52;51.48;96685.94;1882004;76;25636;-94
2022/04/01 00:02:44;;;;;;;8.38;5.22;;;;;;;20.53;51.48;96688.12;1882292;76;25614;-93
2022/04/01 00:05:11;;;;;;;8.33;5.05;;;;;;;20.50;51.52;96686.98;1881672;76;25443;-93
2022/04/01 00:07:40;;;;;;;8.18;5.35;;;;;;;20.50;51.54;96686.19;1881935;76;27462;-93
2022/04/01 00:10:09;;;;;;;7.90;4.92;;;;;;;20.49;51.54;96679.84;1881738;76;25659;-93
2022/04/01 00:12:41;;;;;;;8.00;4.78;;;;;;;20.47;51.56;96683.67;1881935;76;25732;-93
2022/04/01 00:15:09;;;;;;;9.73;5.60;;;;;;;20.48;51.58;96678.87;1881868;76;25783;-92
2022/04/01 00:17:35;;;;;;;8.93;5.33;;;;;;;20.46;51.58;96676.52;1881574;76;25552;-93
2022/04/01 00:20:02;;;;;;;9.10;5.10;;;;;;;20.46;51.62;96682.71;1882084;76;27543;-93
2022/04/01 00:22:28;;;;;;;9.15;5.50;;;;;;;20.44;51.62;96676.19;1881786;76;25688;-93
2022/04/01 00:24:54;;;;;;;9.10;5.12;;;;;;;20.43;51.64;96674.00;1881899;76;25637;-93
2022/04/01 00:27:20;;;;;;;8.55;4.83;;;;;;;20.42;51.67;96671.05;1881924;76;25702;-93
2022/04/01 00:29:48;;;;;;;6.72;4.78;;;;;;;20.41;51.69;96671.48;1881972;76;25569;-92
2022/04/01 00:32:15;;;;;;;6.80;4.83;;;;;;;20.40;51.71;96676.25;1881715;76;25915;-93
2022/04/01 00:34:41;;;;;;;7.50;4.83;;;;;;;20.40;51.69;96676.84;1881856;76;25714;-93
2022/04/01 00:37:07;;;;;;;8.35;4.75;;;;;;;20.40;51.69;96676.25;1882037;76;25420;-92
2022/04/01 00:39:33;;;;;;;7.60;5.17;;;;;;;20.38;51.70;96674.48;1881802;76;25621;-92
2022/04/01 00:42:02;;;;;;;7.45;4.70;;;;;;;20.38;51.73;96666.14;1882155;76;25605;-92
2022/04/01 00:44:32;;;;;;;8.18;4.67;;;;;;;20.35;51.75;96665.61;1882103;76;27419;-92
2022/04/01 00:47:02;;;;;;;9.30;5.05;;;;;;;20.34;51.77;96658.49;1882112;76;25712;-91
2022/04/01 00:49:30;;;;;;;8.58;4.65;;;;;;;20.35;51.78;96663.45;1882361;76;25587;-91
2022/04/01 00:52:00;;;;;;;9.20;4.87;;;;;;;20.33;51.79;96661.10;1882068;76;25405;-91
2022/04/01 00:54:26;;;;;;;7.22;4.37;;;;;;;20.33;51.80;96661.70;1882210;76;25677;-92
2022/04/01 00:56:54;;;;;;;8.38;4.67;;;;;;;20.30;51.80;96661.33;1880328;75;27400;-91
2022/04/01 00:59:22;;;;;;;7.47;4.55;;;;;;;20.30;51.82;96653.62;1878877;76;25986;-92
2022/04/01 01:01:49;;;;;;;7.90;4.70;;;;;;;20.30;51.83;96661.33;1879210;76;25419;-92
2022/04/01 01:04:19;;;;;;;7.42;4.60;;;;;;;20.27;51.84;96652.45;1878998;76;25523;-92
2022/04/01 01:06:52;;;;;;;6.22;4.28;;;;;;;20.27;51.87;96655.23;1879078;76;25371;-92
2022/04/01 01:09:20;;;;;;;6.85;4.62;;;;;;;20.27;51.87;96652.45;1879264;76;28173;-93
2022/04/01 01:11:52;;;;;;;8.00;4.62;;;;;;;20.25;51.90;96647.95;1879215;76;25419;-92
2022/04/01 01:14:26;;;;;;;7.97;4.92;;;;;;;20.24;51.89;96650.56;1879067;76;25636;-93
2022/04/01 01:16:53;;;;;;;7.78;4.17;;;;;;;20.23;51.90;96642.64;1879023;76;25490;-92
2022/04/01 01:19:20;;;;;;;7.72;4.53;;;;;;;20.23;51.90;96651.75;1879078;76;25665;-93
2022/04/01 01:21:49;;;;;;;7.22;4.20;;;;;;;20.23;51.92;96641.25;1879233;76;27391;-93
2022/04/01 01:24:16;;;;;;;7.90;4.80;;;;;;;20.21;51.94;96646.45;1879154;76;25740;-92
2022/04/01 01:26:50;;;;;;;7.08;4.10;;;;;;;20.21;51.94;96645.06;1879389;76;25445;-92
2022/04/01 01:29:26;;;;;;;6.80;4.30;;;;;;;20.18;51.96;96634.96;1879072;76;25542;-93
2022/04/01 01:31:55;;;;;;;6.35;4.40;;;;;;;20.17;51.99;96647.31;1879354;76;25589;-92
2022/04/01 01:34:23;;;;;;;7.22;4.25;;;;;;;20.16;51.97;96648.53;1879264;76;27449;-93
2022/04/01 01:36:51;;;;;;;7.53;4.75;;;;;;;20.16;52.02;96649.13;1879040;76;25668;-93
2022/04/01 01:39:20;;;;;;;7.20;4.47;;;;;;;20.16;52.01;96654.09;1879812;76;25438;-93
2022/04/01 01:41:48;;;;;;;7.15;4.55;;;;;;;20.16;52.00;96654.69;1879118;76;25620;-92
2022/04/01 01:44:16;;;;;;;6.22;4.10;;;;;;;20.13;52.03;96649.38;1879506;76;25600;-95
2022/04/01 01:46:42;;;;;;;7.08;4.65;;;;;;;20.12;52.02;96642.86;1879307;76;28087;-95
2022/04/01 01:49:08;;;;;;;6.37;4.35;;;;;;;20.12;52.04;96633.89;1879318;76;25395;-94
2022/04/01 01:57:04;;;;;;;6.10;4.30;;;;;;;20.12;52.04;96624.78;1879003;76;25123;-96
2022/04/01 01:59:30;;;;;;;6.80;4.25;;;;;;;20.09;52.05;96625.02;1879456;76;27388;-96
2022/04/01 02:01:57;;;;;;;7.33;4.45;;;;;;;20.08;52.05;96631.80;1879318;76;25667;-93
2022/04/01 02:04:24;;;;;;;6.10;4.47;;;;;;;20.08;52.07;96629.61;1878911;76;25632;-94
2022/04/01 02:06:50;;;;;;;5.35;3.87;;;;;;;20.08;52.08;96629.61;1879086;76;25712;-96
2022/04/01 02:09:17;;;;;;;7.53;4.25;;;;;;;20.06;52.08;96627.27;1879267;76;25364;-95
2022/04/01 02:11:44;;;;;;;6.67;4.03;;;;;;;20.05;52.08;96632.05;1879231;76;28115;-95
2022/04/01 02:14:11;;;;;;;6.35;3.90;;;;;;;20.05;52.09;96620.94;1879161;76;25625;-95
2022/04/01 02:16:39;;;;;;;7.83;4.10;;;;;;;20.04;52.09;96617.19;1879196;76;25581;-94
2022/04/01 02:19:06;;;;;;;6.67;4.28;;;;;;;20.03;52.12;96619.77;1879184;76;25585;-94
2022/04/01 02:21:32;;;;;;;6.58;4.17;;;;;;;20.02;52.13;96615.44;1879338;76;25624;-95
2022/04/01 02:23:58;;;;;;;5.83;4.12;;;;;;;20.01;52.13;96611.86;1879242;76;27438;-94
2022/04/01 02:26:24;;;;;;;7.10;4.45;;;;;;;20.01;52.14;96613.25;1879201;76;25708;-94
2022/04/01 02:28:50;;;;;;;7.10;3.98;;;;;;;20.00;52.13;96613.68;1879307;76;25664;-94
2022/04/01 02:31:17;;;;;;;6.92;4.15;;;;;;;20.00;52.15;96615.07;1854725;76;25737;-95
2022/04/01 02:33:44;;;;;;;6.60;4.12;;;;;;;19.98;52.14;96608.55;1878908;76;25655;-95
2022/04/01 02:36:11;;;;;;;5.97;3.98;;;;;;;19.98;52.17;96609.14;1879179;76;27419;-95
2022/04/01 02:38:42;;;;;;;6.53;4.22;;;;;;;19.96;52.17;96609.57;1879286;76;25697;-94
2022/04/01 02:41:15;;;;;;;5.85;3.77;;;;;;;19.95;52.18;96610.80;1879323;76;25581;-94
2022/04/01 02:43:39;;;;;;;7.37;4.15;;;;;;;19.97;52.20;96620.09;1876974;76;25649;-95
2022/04/01 02:46:05;;;;;;;6.35;4.20;;;;;;;19.96;52.17;96619.30;1879406;76;25648;-94
2022/04/01 02:48:32;;;;;;;7.03;4.20;;;;;;;19.94;52.17;96605.83;1879335;76;27558;-94
2022/04/01 02:50:59;;;;;;;6.85;4.00;;;;;;;19.94;52.17;96605.03;1879178;76;25597;-94
2022/04/01 02:53:25;;;;;;;6.22;3.85;;;;;;;19.93;52.17;96595.93;1879305;76;25668;-94
2022/04/01 02:55:51;;;;;;;7.30;4.37;;;;;;;19.93;52.18;96595.14;1878815;76;25605;-94
2022/04/01 02:58:18;;;;;;;5.35;3.67;;;;;;;19.91;52.20;96596.95;1881469;76;25677;-95
2022/04/01 03:00:45;;;;;;;5.67;4.00;;;;;;;19.91;52.20;96598.94;1854768;76;27493;-94
2022/04/01 03:03:12;;;;;;;5.55;3.85;;;;;;;19.90;52.23;96600.16;1881537;76;25635;-95
2022/04/01 03:05:44;;;;;;;6.03;3.95;;;;;;;19.88;52.23;96606.14;1882141;76;25151;-95
2022/04/01 03:08:10;;;;;;;6.03;3.95;;;;;;;19.89;52.25;96605.55;1882234;76;25538;-94
2022/04/01 03:10:39;;;;;;;5.90;3.80;;;;;;;19.88;52.24;96607.53;1882121;76;25614;-94
2022/04/01 03:13:09;;;;;;;5.65;3.50;;;;;;;19.88;52.26;96614.48;1881866;76;27508;-94
2022/04/01 03:15:39;;;;;;;5.17;3.53;;;;;;;19.87;52.24;96612.13;1881819;76;25385;-94
2022/04/01 03:18:06;;;;;;;6.62;3.92;;;;;;;19.87;52.26;96620.47;1881816;76;25588;-94
2022/04/01 03:20:35;;;;;;;6.12;3.60;;;;;;;19.86;52.28;96618.28;1881920;76;25659;-93
2022/04/01 03:23:00;;;;;;;5.33;3.83;;;;;;;19.87;52.25;96622.66;1881738;76;25642;-93
2022/04/01 03:25:32;;;;;;;5.85;3.70;;;;;;;19.86;52.26;96622.45;1881821;76;27372;-95
2022/04/01 03:27:54;;;;;;;6.65;4.15;;;;;;;19.85;52.30;96623.67;1881363;76;25749;-93
2022/04/01 03:30:20;;;;;;;5.92;3.55;;;;;;;19.84;52.27;96619.93;1882057;76;25452;-94
2022/04/01 03:32:46;;;;;;;6.50;4.20;;;;;;;19.84;52.29;96622.11;1881852;76;26404;-94
2022/04/01 03:35:17;;;;;;;6.05;4.05;;;;;;;19.83;52.27;96623.30;1882096;76;25420;-93
2022/04/01 03:37:45;;;;;;;6.75;3.90;;;;;;;19.82;52.30;96623.13;1881909;76;27380;-93
2022/04/01 03:40:16;;;;;;;6.12;3.72;;;;;;;19.80;52.35;96631.90;1881800;76;25404;-93
2022/04/01 03:42:48;;;;;;;6.00;3.62;;;;;;;19.78;52.32;96619.02;1881556;76;25555;-93
2022/04/01 03:45:17;;;;;;;6.37;3.67;;;;;;;19.79;52.31;96619.82;1881571;76;25566;-93
2022/04/01 03:48:06;;;;;;;5.85;3.83;;;;;;;19.78;52.30;96616.24;1881725;76;25353;-93
2022/04/01 03:50:34;;;;;;;5.53;3.90;;;;;;;19.78;52.30;96618.26;1881976;76;27625;-93
2022/04/01 03:53:08;;;;;;;5.42;3.45;;;;;;;19.74;52.41;96616.92;1881774;76;25835;-93
2022/04/01 03:55:39;;;;;;;5.87;3.77;;;;;;;19.72;52.35;96615.80;1882199;76;25677;-95
2022/04/01 03:58:13;;;;;;;5.37;3.25;;;;;;;19.72;52.37;96611.63;1854525;76;25573;-92
2022/04/01 04:00:41;;;;;;;6.15;3.45;;;;;;;19.69;52.46;96607.71;1881602;76;25609;-93
2022/04/01 04:03:10;;;;;;;6.05;3.52;;;;;;;19.68;52.50;96607.52;1882014;76;27408;-94
2022/04/01 04:05:38;;;;;;;5.33;3.60;;;;;;;19.66;52.41;96605.16;1882041;76;25382;-93
2022/04/01 04:08:07;;;;;;;4.70;3.22;;;;;;;19.68;52.46;96608.91;1882021;76;25207;-92
2022/04/01 04:10:35;;;;;;;6.25;4.00;;;;;;;19.65;52.48;96611.94;1881922;76;25591;-94
2022/04/01 04:13:06;;;;;;;6.58;3.98;;;;;;;19.66;52.56;96612.11;1880079;76;25861;-92
2022/04/01 04:15:56;;;;;;;5.08;3.27;;;;;;;19.65;52.64;96611.94;1881698;76;28233;-92
2022/04/01 04:18:28;;;;;;;5.62;3.52;;;;;;;19.65;52.62;96615.31;1881657;76;25701;-93
2022/04/01 04:21:11;;;;;;;6.33;3.70;;;;;;;19.66;52.62;96620.44;1881936;76;25427;-91
2022/04/01 04:23:47;;;;;;;6.58;3.20;;;;;;;19.66;52.70;96630.16;1878218;76;26312;-94
2022/04/01 04:26:18;;;;;;;6.10;3.50;;;;;;;19.65;52.68;96630.00;1882146;76;25568;-93
2022/04/01 04:28:50;;;;;;;5.50;3.80;;;;;;;19.67;52.66;96632.34;1881847;75;28418;-92
2022/04/01 04:31:25;;;;;;;5.90;3.65;;;;;;;19.66;52.69;96638.50;1881763;76;25416;-92
2022/04/01 04:33:55;;;;;;;5.95;3.70;;;;;;;19.67;52.69;96635.13;1882277;76;25432;-91
2022/04/01 04:36:29;;;;;;;5.25;3.62;;;;;;;19.67;52.73;96634.53;1881756;76;25661;-92
2022/04/01 04:38:56;;;;;;;6.33;3.75;;;;;;;19.67;52.71;96637.91;1880910;76;25447;-92
2022/04/01 04:41:24;;;;;;;5.80;3.67;;;;;;;19.67;52.70;96635.92;1882086;76;27424;-90
2022/04/01 04:43:50;;;;;;;4.70;3.45;;;;;;;19.67;52.78;96630.95;1882010;76;25685;-93
2022/04/01 04:46:19;;;;;;;6.37;4.17;;;;;;;19.67;52.81;96630.37;1882215;76;25373;-93
2022/04/01 04:48:47;;;;;;;6.17;3.67;;;;;;;19.68;52.91;96635.30;1882009;76;26175;-94
2022/04/01 04:51:16;;;;;;;5.60;3.87;;;;;;;19.68;52.80;96637.48;1882261;76;25361;-91
2022/04/01 04:53:44;;;;;;;5.70;3.20;;;;;;;19.69;52.82;96635.50;1882030;76;27571;-92
2022/04/01 04:56:10;;;;;;;5.78;3.70;;;;;;;19.70;52.79;96627.33;1881594;76;25577;-92
2022/04/01 04:58:43;;;;;;;7.72;3.90;;;;;;;19.71;52.75;96622.57;1881823;76;25417;-91
2022/04/01 05:01:26;;;;;;;7.22;3.87;;;;;;;19.72;52.74;96631.08;1881594;76;25615;-91
2022/04/01 05:04:10;;;;;;;5.90;3.80;;;;;;;19.70;52.76;96628.72;1881857;76;25389;-91
2022/04/01 05:06:42;;;;;;;6.92;3.80;;;;;;;19.68;52.75;96629.74;1880316;75;27525;-91
2022/04/01 05:09:28;;;;;;;5.92;3.80;;;;;;;19.69;52.74;96628.55;1879556;75;25376;-90
2022/04/01 05:12:19;;;;;;;5.62;3.50;;;;;;;19.67;52.74;96624.80;1881117;76;25421;-90
2022/04/01 05:15:00;;;;;;;;;;;;;;;19.65;52.76;96621.66;1874425;76;25498;-90
2022/04/01 05:17:37;;;;;;;6.35;3.67;;;;;;;19.64;52.76;96629.03;1882140;76;25701;-90
2022/04/01 05:20:15;;;;;;;5.62;3.47;;;;;;;19.61;52.76;96633.45;1774357;80;27461;-90
2022/04/01 05:22:50;;;;;;;5.67;3.47;;;;;;;19.60;52.80;96642.97;1773367;80;25591;-90
2022/04/01 05:25:20;;;;;;;5.65;3.58;;;;;;;19.59;52.79;96642.80;1774605;80;25511;-90
2022/04/01 05:27:53;;;;;;;6.87;4.10;;;;;;;19.59;52.81;96639.23;1774573;80;25651;-91
2022/04/01 05:30:24;;;;;;;6.03;3.50;;;;;;;19.59;52.80;96643.39;1774467;80;25741;-91
2022/04/01 05:33:09;;;;;;;6.63;4.10;;;;;;;19.58;52.80;96644.02;1774458;80;25946;-91
2022/04/01 05:35:39;;;;;;;6.03;3.80;;;;;;;19.59;52.80;96647.56;1774486;80;25887;-91
2022/04/01 05:38:07;;;;;;;5.42;3.80;;;;;;;19.58;52.79;96644.02;1774780;80;25824;-91
2022/04/01 05:40:37;;;;;;;4.60;3.40;;;;;;;19.58;52.76;96648.19;1774797;80;25441;-91
2022/04/01 05:43:04;;;;;;;6.67;3.40;;;;;;;19.56;52.78;96652.78;1774823;80;25442;-91
2022/04/01 05:45:31;;;;;;;5.22;3.52;;;;;;;19.55;52.79;96658.76;1774818;80;27364;-91
2022/04/01 05:47:59;;;;;;;5.67;3.22;;;;;;;19.55;52.82;96664.31;1774575;80;25834;-90
2022/04/01 05:50:28;;;;;;;5.40;3.60;;;;;;;19.53;52.82;96661.95;1774698;80;25515;-91
2022/04/01 05:52:54;;;;;;;5.37;3.40;;;;;;;19.53;52.82;96660.57;1774425;80;26455;-91
2022/04/01 05:55:25;;;;;;;4.65;3.25;;;;;;;19.53;52.81;96654.22;1774854;80;25442;-91
2022/04/01 05:57:54;;;;;;;5.35;3.72;;;;;;;19.52;52.81;96658.98;1847353;76;27446;-92
2022/04/01 06:00:21;;;;;;;5.67;3.40;;;;;;;19.52;52.81;96661.00;1880692;76;25569;-92
2022/04/01 06:03:18;;;;;;;6.30;3.58;;;;;;;19.50;52.82;96653.67;1881997;76;25783;-93
2022/04/01 06:06:10;;;;;;;6.40;3.70;;;;;;;19.50;52.83;96656.45;1881836;76;26250;-91
2022/04/01 06:09:14;;;;;;;5.50;3.62;;;;;;;19.48;52.83;96657.47;1882176;76;25401;-91
2022/04/01 06:12:04;;;;;;;7.15;3.90;;;;;;;19.48;52.85;96654.10;1881929;76;27467;-92
2022/04/01 06:14:42;;;;;;;5.00;3.33;;;;;;;19.47;52.84;96656.70;1882217;76;25434;-91
2022/04/01 06:17:37;;;;;;;5.28;3.50;;;;;;;19.47;52.86;96653.13;1881270;76;25353;-91
2022/04/01 06:20:07;;;;;;;5.40;3.67;;;;;;;19.45;52.86;96656.33;1881402;75;25489;-92
2022/04/01 06:22:38;;;;;;;5.10;3.40;;;;;;;19.43;52.85;96658.77;1882010;76;25621;-91
2022/04/01 06:25:15;;;;;;;7.03;3.62;;;;;;;19.43;52.87;96666.48;1880853;75;28387;-92
2022/04/01 06:27:47;;;;;;;7.33;3.60;;;;;;;19.43;52.87;96665.09;1881694;76;25614;-91
2022/04/01 06:30:19;;;;;;;5.95;3.30;;;;;;;19.42;52.87;96654.40;1881928;76;25381;-91
2022/04/01 06:32:54;;;;;;;5.42;3.35;;;;;;;19.41;52.89;96650.86;1881963;76;25752;-92
2022/04/01 06:35:30;;;;;;;5.22;3.52;;;;;;;19.41;52.87;96652.25;1882168;76;25373;-92
2022/04/01 06:38:00;;;;;;;4.65;3.10;;;;;;;19.43;52.89;96658.77;1881941;76;28271;-92
2022/04/01 06:40:55;;;;;;;5.40;3.33;;;;;;;19.41;52.90;96659.78;1882098;76;25425;-93
2022/04/01 06:43:23;;;;;;;6.37;3.52;;;;;;;19.39;52.92;96664.97;1871084;76;25590;-91
2022/04/01 06:45:49;;;;;;;5.47;3.33;;;;;;;19.39;52.92;96662.98;1881864;76;25665;-92
2022/04/01 06:48:15;;;;;;;5.83;3.65;;;;;;;19.39;52.90;96662.98;1882090;76;25558;-91
2022/04/01 06:50:49;;;;;;;5.28;3.20;;;;;;;19.38;52.91;96660.63;1882064;76;27533;-92
2022/04/01 06:53:10;;;;;;;5.53;3.40;;;;;;;19.37;52.94;96658.44;1880570;76;25643;-94
2022/04/01 06:55:37;;;;;;;4.62;3.27;;;;;;;19.38;52.96;96668.95;1882077;76;25657;-94
2022/04/01 06:58:09;;;;;;;5.85;3.60;;;;;;;19.36;52.94;96661.05;1881600;75;25576;-92
2022/04/01 07:00:34;;;;;;;5.75;3.55;;;;;;;19.36;52.95;96661.05;1880876;76;25641;-94
2022/04/01 07:03:00;;;;;;;5.28;3.75;;;;;;;19.37;52.94;96666.02;1881769;76;25982;-93
2022/04/01 07:05:27;;;;;;;5.17;3.40;;;;;;;19.36;52.94;96663.83;1881923;76;26056;-93
2022/04/01 07:07:53;;;;;;;5.67;3.42;;;;;;;19.35;52.94;96663.66;1881660;76;25388;-91
2022/04/01 07:10:20;;;;;;;4.87;3.25;;;;;;;19.36;52.94;96663.83;1881852;76;25713;-92
2022/04/01 07:12:46;;;;;;;4.67;3.33;;;;;;;19.37;52.97;96668.79;1881879;76;25576;-93
2022/04/01 07:15:12;;;;;;;5.87;3.58;;;;;;;19.35;53.00;96669.80;1882059;76;27532;-91
2022/04/01 07:17:39;;;;;;;6.95;3.50;;;;;;;19.34;52.98;96662.69;1881922;76;27200;-92
2022/04/01 07:20:07;;;;;;;5.97;3.67;;;;;;;19.34;53.00;96660.67;1881989;76;25595;-93
2022/04/01 07:22:36;;;;;;;5.28;3.27;;;;;;;19.35;52.99;96667.82;1881586;76;25603;-93
2022/04/01 07:25:02;;;;;;;7.17;3.58;;;;;;;19.34;52.97;96664.84;1881617;76;25586;-94
2022/04/01 07:27:29;;;;;;;5.30;3.67;;;;;;;19.34;52.97;96671.78;1881891;76;27549;-93
2022/04/01 07:29:55;;;;;;;7.15;4.08;;;;;;;19.34;53.00;96672.41;1881800;76;25701;-91
2022/04/01 07:32:32;;;;;;;5.65;3.40;;;;;;;19.34;53.02;96674.56;1882052;76;25645;-91
2022/04/01 07:35:00;;;;;;;6.08;3.58;;;;;;;19.34;53.02;96676.58;1881590;76;26371;-91
2022/04/01 07:37:28;;;;;;;5.35;3.27;;;;;;;19.33;53.00;96675.78;1882225;76;25338;-92
2022/04/01 07:40:01;;;;;;;7.33;3.65;;;;;;;19.32;53.02;96675.61;1881916;76;27364;-91
2022/04/01 07:42:28;;;;;;;5.70;3.37;;;;;;;19.32;53.00;96678.38;1879807;76;25439;-92
2022/04/01 07:44:55;;;;;;;6.40;3.60;;;;;;;19.32;53.01;96665.89;1881880;76;25412;-91
2022/04/01 07:47:22;;;;;;;5.37;3.70;;;;;;;19.32;53.03;96670.05;1881887;76;25598;-93
2022/04/01 07:49:50;;;;;;;5.62;3.35;;;;;;;19.32;53.03;96663.11;1881995;76;25559;-92
2022/04/01 07:52:19;;;;;;;6.35;4.05;;;;;;;19.32;53.00;96667.27;1881964;76;27400;-93
2022/04/01 07:54:47;;;;;;;5.70;3.47;;;;;;;19.33;53.03;96679.15;1881939;76;25637;-94
2022/04/01 07:57:15;;;;;;;5.83;3.80;;;;;;;19.31;53.01;96677.59;1881893;76;25397;-93
2022/04/01 07:59:42;;;;;;;5.15;3.60;;;;;;;19.31;53.03;96689.29;1881513;76;26330;-93
2022/04/01 08:02:09;;;;;;;5.25;3.45;;;;;;;19.30;53.04;96684.36;1881982;76;25642;-93
2022/04/01 08:04:35;;;;;;;5.53;3.70;;;;;;;19.29;53.06;96679.98;1882028;76;28111;-92
2022/04/01 08:07:03;;;;;;;5.87;3.75;;;;;;;19.30;53.04;96680.78;1881864;76;25752;-93
2022/04/01 08:09:29;;;;;;;4.95;3.45;;;;;;;19.29;53.07;96683.39;1881962;76;25442;-93
2022/04/01 08:11:56;;;;;;;5.85;3.50;;;;;;;19.29;53.07;96686.93;1881938;76;25572;-91
2022/04/01 08:14:23;;;;;;;5.35;3.30;;;;;;;19.28;53.07;96685.37;1882156;76;25622;-93
2022/04/01 08:16:49;;;;;;;5.00;3.17;;;;;;;19.29;53.06;96688.94;1881860;76;27458;-92
2022/04/01 08:19:16;;;;;;;5.55;3.72;;;;;;;19.28;53.11;96693.70;1881882;76;25618;-92
2022/04/01 08:21:44;;;;;;;6.08;3.40;;;;;;;19.28;53.10;96694.30;1881930;76;25439;-92
2022/04/01 08:24:11;;;;;;;6.10;3.77;;;;;;;19.29;53.06;96693.87;1881645;76;25573;-93
2022/04/01 08:26:38;;;;;;;6.72;3.70;;;;;;;19.30;53.05;96700.22;1881922;76;25597;-92
2022/04/01 08:29:04;;;;;;;6.03;3.50;;;;;;;19.29;53.05;96701.44;1882135;76;28022;-92
2022/04/01 08:31:33;;;;;;;5.75;3.47;;;;;;;19.28;53.07;96714.53;1881826;76;25713;-92
2022/04/01 08:33:59;;;;;;;6.30;3.55;;;;;;;19.28;53.07;96710.36;1881560;76;25427;-92
2022/04/01 08:36:26;;;;;;;6.17;3.67;;;;;;;19.28;53.07;96718.69;1881786;76;25417;-92
2022/04/01 08:38:53;;;;;;;6.67;3.67;;;;;;;19.27;53.08;96712.97;1881897;76;25692;-91
2022/04/01 08:41:21;;;;;;;6.05;3.80;;;;;;;19.26;53.10;96715.54;1881723;76;27411;-91
2022/04/01 08:43:54;;;;;;;6.12;3.52;;;;;;;19.27;53.12;96709.39;1881911;76;25759;-91
2022/04/01 08:46:24;;;;;;;6.20;3.75;;;;;;;19.27;53.08;96706.62;1855082;76;25615;-92
2022/04/01 08:48:51;;;;;;;5.20;3.30;;;;;;;19.25;53.09;96711.80;1881349;76;25596;-91
2022/04/01 08:51:17;;;;;;;5.17;3.47;;;;;;;19.24;53.13;96712.42;1881889;76;25676;-91
2022/04/01 08:53:46;;;;;;;5.95;3.70;;;;;;;19.24;53.12;96712.42;1881667;76;27274;-91
2022/04/01 08:56:14;;;;;;;5.47;3.62;;;;;;;19.25;53.10;96718.14;1881621;76;25587;-91
2022/04/01 08:58:41;;;;;;;5.50;3.40;;;;;;;19.26;53.08;96716.16;1880768;75;25625;-90
2022/04/01 09:01:08;;;;;;;5.25;3.30;;;;;;;19.24;53.09;96714.40;1879114;76;25424;-90
2022/04/01 09:03:36;;;;;;;6.50;3.72;;;;;;;19.24;53.11;96714.40;1879216;76;25713;-91
2022/04/01 09:06:05;;;;;;;4.80;3.30;;;;;;;19.23;53.13;96724.70;1879371;76;27391;-91
2022/04/01 09:08:37;;;;;;;5.80;3.20;;;;;;;19.23;53.13;96731.65;1879474;76;25653;-91
2022/04/01 09:11:10;;;;;;;5.75;3.45;;;;;;;19.23;53.13;96739.21;1879460;76;25637;-90
2022/04/01 09:13:50;;;;;;;4.75;3.37;;;;;;;19.22;53.17;96739.80;1879370;76;26250;-91
2022/04/01 09:16:39;;;;;;;4.92;3.35;;;;;;;19.21;53.15;96738.25;1879931;76;25404;-91
2022/04/01 09:19:06;;;;;;;5.42;3.42;;;;;;;19.21;53.14;96742.41;1878742;76;25772;-90
2022/04/01 09:21:37;;;;;;;5.33;3.83;;;;;;;19.21;53.18;96732.69;1879028;76;25716;-91
2022/04/01 09:24:25;;;;;;;6.28;3.58;;;;;;;19.20;53.18;96730.34;1879264;76;25652;-90
2022/04/01 09:26:56;;;;;;;5.33;3.30;;;;;;;19.21;53.15;96740.23;1879052;76;25673;-90
2022/04/01 09:29:24;;;;;;;6.35;3.62;;;;;;;19.20;53.12;96742.83;1879533;76;25882;-92
2022/04/01 09:31:53;;;;;;;5.17;3.67;;;;;;;19.19;53.19;96742.03;1878807;76;28291;-92
2022/04/01 09:34:20;;;;;;;6.25;3.62;;;;;;;19.15;53.24;96732.39;1879260;76;25716;-93
2022/04/01 09:36:49;;;;;;;5.55;3.85;;;;;;;19.13;53.11;96733.39;1879580;76;25543;-91
2022/04/01 09:39:19;;;;;;;5.40;3.83;;;;;;;19.12;52.87;96731.03;1879074;76;25602;-91
2022/04/01 09:41:58;;;;;;;5.62;3.70;;;;;;;19.09;53.17;96729.89;1879433;76;25374;-91
2022/04/01 09:44:26;;;;;;;8.95;4.00;;;;;;;19.08;53.30;96726.92;1878495;76;26008;-92
2022/04/01 09:46:56;;;;;;;;;;;;;;;19.08;53.08;96731.08;1881018;76;25744;-92
2022/04/01 09:49:39;;;;;;;10.13;3.70;;;;;;;19.09;52.98;96733.27;1877593;76;25614;-92
2022/04/01 09:52:13;;;;;;;8.30;3.80;;;;;;;19.06;53.24;96739.80;1879491;76;25383;-93
2022/04/01 09:54:53;;;;;;;7.53;4.12;;;;;;;19.05;53.39;96733.27;1879281;76;25105;-92
2022/04/01 09:57:24;;;;;;;7.40;4.40;;;;;;;19.03;53.38;96737.86;1879490;76;27616;-93
2022/04/01 09:59:53;;;;;;;8.18;3.87;;;;;;;19.04;53.36;96735.88;1878675;75;25685;-92
2022/04/01 10:02:21;;;;;;;11.10;4.28;;;;;;;19.05;53.33;96742.40;1879222;76;25599;-92
2022/04/01 10:04:48;;;;;;;6.22;4.45;;;;;;;19.08;53.25;96738.61;1879238;76;25646;-93
2022/04/01 10:07:14;;;;;;;6.47;4.53;;;;;;;19.10;53.20;96743.16;1879250;76;25717;-92
2022/04/01 10:09:43;;;;;;;9.70;4.50;;;;;;;19.11;53.20;96741.97;1879429;76;27431;-93
2022/04/01 10:12:14;;;;;;;8.75;4.53;;;;;;;19.12;53.17;96742.94;1878697;76;25810;-92
2022/04/01 10:14:41;;;;;;;8.30;4.70;;;;;;;19.14;53.18;96749.46;1879353;76;25606;-92
2022/04/01 10:17:10;;;;;;;6.80;3.87;;;;;;;19.15;53.17;96750.43;1879289;76;25666;-92
2022/04/01 10:19:40;;;;;;;9.10;4.42;;;;;;;19.16;53.25;96751.20;1879240;76;25511;-92
2022/04/01 10:22:06;;;;;;;6.15;3.90;;;;;;;19.14;53.24;96759.17;1852547;76;27893;-93
2022/04/01 10:24:59;;;;;;;7.65;4.17;;;;;;;19.14;53.29;96757.79;1879511;76;25560;-92
2022/04/01 10:27:38;;;;;;;6.05;4.15;;;;;;;19.13;53.32;96759.77;1849147;77;25517;-92
2022/04/01 10:30:11;;;;;;;5.78;4.33;;;;;;;19.15;53.08;96754.59;1849773;77;25489;-91
2022/04/01 10:32:42;;;;;;;7.45;4.33;;;;;;;19.18;52.95;96750.19;1849325;77;25759;-92
2022/04/01 10:35:23;;;;;;;7.62;4.78;;;;;;;19.18;52.88;96754.35;1849730;77;27749;-92
2022/04/01 10:38:11;;;;;;;8.98;4.60;;;;;;;19.18;52.86;96750.19;1847674;77;25682;-91
2022/04/01 10:40:41;;;;;;;9.93;4.55;;;;;;;19.17;53.01;96757.72;1849550;77;25726;-92
2022/04/01 10:43:29;;;;;;;7.47;4.30;;;;;;;19.16;52.95;96751.20;1849845;77;25694;-93
2022/04/01 10:46:04;;;;;;;11.33;5.08;;;;;;;19.14;52.94;96754.39;1849271;77;25743;-92
2022/04/01 10:51:37;;;;;;;8.23;5.03;;;;;;;19.12;52.82;96760.19;1849173;77;25690;-93
2022/04/01 10:54:16;;;;;;;8.98;4.85;;;;;;;19.13;52.68;96765.32;1849333;77;25813;-93
2022/04/01 10:57:01;;;;;;;8.35;4.97;;;;;;;19.11;52.66;96766.33;1834799;77;25494;-93
2022/04/01 10:59:32;;;;;;;6.85;4.75;;;;;;;19.11;52.64;96767.72;1849023;77;25706;-92
2022/04/01 11:02:06;;;;;;;8.40;5.12;;;;;;;19.12;52.56;96774.06;1847970;77;27591;-92
2022/04/01 11:04:39;;;;;;;8.40;5.28;;;;;;;19.13;52.55;96775.63;1862041;76;25706;-93
2022/04/01 11:07:14;;;;;;;7.60;5.08;;;;;;;19.12;52.44;96769.91;1881944;76;25599;-93
2022/04/01 11:10:04;;;;;;;8.03;5.25;;;;;;;19.11;52.37;96773.27;1854739;76;25700;-92
2022/04/01 11:12:34;;;;;;;10.18;5.37;;;;;;;19.11;52.32;96769.73;1855215;76;25398;-92
2022/04/01 11:15:09;;;;;;;8.57;5.43;;;;;;;19.08;52.57;96770.53;1880351;76;27573;-92
2022/04/01 11:17:41;;;;;;;8.03;5.53;;;;;;;19.09;52.46;96777.09;1880911;76;25350;-92
2022/04/01 11:20:10;;;;;;;9.13;5.65;;;;;;;19.09;52.44;96772.92;1882043;76;25744;-92
2022/04/01 11:22:56;;;;;;;9.15;5.58;;;;;;;19.10;52.34;96777.27;1881965;76;25381;-92
2022/04/01 11:25:28;;;;;;;8.55;5.40;;;;;;;19.10;52.29;96770.32;1881769;76;25361;-93
2022/04/01 11:28:08;;;;;;;8.28;5.40;;;;;;;19.10;52.17;96770.32;1881937;76;27322;-92
2022/04/01 11:30:44;;;;;;;9.80;5.75;;;;;;;19.12;52.18;96767.92;1879701;75;25678;-93
2022/04/01 11:33:14;;;;;;;10.03;5.70;;;;;;;19.14;52.10;96768.89;1882025;76;25729;-93
2022/04/01 11:35:57;;;;;;;10.03;6.03;;;;;;;19.14;52.10;96763.34;1882065;76;25707;-93
2022/04/01 11:38:27;;;;;;;7.70;5.00;;;;;;;19.14;52.17;96773.83;1881633;76;25558;-93
2022/04/01 11:41:00;;;;;;;11.12;5.83;;;;;;;19.12;52.38;96770.70;1882094;76;28209;-93
2022/04/01 11:43:28;;;;;;;8.55;5.92;;;;;;;19.10;52.19;96770.91;1881525;76;25605;-94
2022/04/01 11:46:02;;;;;;;9.25;6.08;;;;;;;19.09;52.15;96777.68;1881872;76;25610;-93
2022/04/01 11:48:33;;;;;;;7.85;5.47;;;;;;;19.09;52.09;96774.31;1881086;76;25559;-92
2022/04/01 11:51:14;;;;;;;10.32;5.47;;;;;;;19.08;52.13;96774.11;1881965;76;25595;-93
2022/04/01 11:53:51;;;;;;;11.08;6.25;;;;;;;19.08;52.13;96774.11;1881738;76;27394;-92
2022/04/01 11:56:22;;;;;;;10.53;6.00;;;;;;;19.09;52.08;96776.29;1881475;76;25619;-95
2022/04/01 11:58:52;;;;;;;;;;;;;;;19.07;52.07;96769.73;1884649;76;25389;-94